createdAt,value
2022-12-19T00:00:18.329Z,64.16
2022-12-19T00:02:46.345Z,64.51
2022-12-19T00:05:15.663Z,64.72
2022-12-19T00:07:43.217Z,64.38
2022-12-19T00:10:11.091Z,64.00
2022-12-19T00:12:38.567Z,64.10
2022-12-19T00:15:06.915Z,63.73
2022-12-19T00:17:34.879Z,63.78
2022-12-19T00:20:05.666Z,63.48
2022-12-19T00:22:33.210Z,63.47
2022-12-19T00:25:01.090Z,63.18
2022-12-19T00:27:29.194Z,63.21
2022-12-19T00:29:57.114Z,63.09
2022-12-19T00:32:25.070Z,63.48
2022-12-19T00:34:52.602Z,63.61
2022-12-19T00:37:20.157Z,63.97
2022-12-19T00:39:48.101Z,63.73
2022-12-19T00:42:15.687Z,64.27
2022-12-19T00:44:43.245Z,63.44
2022-12-19T00:47:11.065Z,63.23
2022-12-19T00:49:38.965Z,63.73
2022-12-19T00:52:09.443Z,63.13
2022-12-19T00:54:37.404Z,63.20
2022-12-19T00:57:05.172Z,63.33
2022-12-19T00:59:32.993Z,63.96
2022-12-19T01:02:00.909Z,63.52
2022-12-19T01:04:33.503Z,63.37
2022-12-19T01:07:05.824Z,62.87
2022-12-19T01:09:35.425Z,63.27
2022-12-19T01:12:24.687Z,63.31
2022-12-19T01:14:54.523Z,63.12
2022-12-19T01:17:35.470Z,62.97
2022-12-19T01:20:15.077Z,63.26
2022-12-19T01:22:43.532Z,63.06
2022-12-19T01:25:14.556Z,63.77
2022-12-19T01:27:42.403Z,63.57
2022-12-19T01:30:11.161Z,63.84
2022-12-19T01:32:39.307Z,63.07
2022-12-19T01:35:09.891Z,63.11
2022-12-19T01:37:55.865Z,62.87
2022-12-19T01:40:31.707Z,62.34
2022-12-19T01:43:01.916Z,62.53
2022-12-19T01:45:35.926Z,62.12
2022-12-19T01:48:32.026Z,62.14
2022-12-19T01:51:40.491Z,62.75
2022-12-19T01:54:13.945Z,62.64
2022-12-19T01:56:47.457Z,62.77
2022-12-19T01:59:25.674Z,62.55
2022-12-19T02:02:01.507Z,62.01
2022-12-19T02:04:32.667Z,62.22
2022-12-19T02:07:15.237Z,62.19
2022-12-19T02:09:56.977Z,61.65
2022-12-19T02:12:33.018Z,62.11
2022-12-19T02:15:03.253Z,62.18
2022-12-19T02:18:03.255Z,62.66
2022-12-19T02:20:45.562Z,63.10
2022-12-19T02:23:36.132Z,63.39
2022-12-19T02:26:38.468Z,63.65
2022-12-19T02:29:11.977Z,63.67
2022-12-19T02:31:45.122Z,64.13
2022-12-19T02:34:44.679Z,63.86
2022-12-19T02:37:32.352Z,64.54
2022-12-19T02:40:15.157Z,63.82
2022-12-19T02:42:48.364Z,63.73
2022-12-19T02:45:23.494Z,65.07
2022-12-19T02:48:03.330Z,64.65
2022-12-19T02:50:42.137Z,64.26
2022-12-19T02:53:12.664Z,64.64
2022-12-19T02:56:01.447Z,63.89
2022-12-19T02:58:49.366Z,63.57
2022-12-19T03:01:35.571Z,63.86
2022-12-19T03:04:17.530Z,63.75
2022-12-19T03:06:52.064Z,63.89
2022-12-19T03:09:50.805Z,63.63
2022-12-19T03:12:47.291Z,63.75
2022-12-19T03:15:15.978Z,63.72
2022-12-19T03:17:44.023Z,63.98
2022-12-19T03:20:33.076Z,64.18
2022-12-19T03:23:01.012Z,64.03
2022-12-19T03:25:30.823Z,64.28
2022-12-19T03:28:02.833Z,63.95
2022-12-19T03:30:34.107Z,63.72
2022-12-19T03:33:03.675Z,63.81
2022-12-19T03:35:34.164Z,63.74
2022-12-19T03:38:03.888Z,63.67
2022-12-19T03:40:34.878Z,64.16
2022-12-19T03:43:11.158Z,63.83
2022-12-19T03:45:48.659Z,64.48
2022-12-19T03:48:45.363Z,64.11
2022-12-19T03:51:19.376Z,64.33
2022-12-19T03:54:12.818Z,64.54
2022-12-19T03:56:45.684Z,65.27
2022-12-19T03:59:22.216Z,64.54
2022-12-19T04:01:52.000Z,64.24
2022-12-19T04:04:22.661Z,64.11
2022-12-19T04:06:52.563Z,63.94
2022-12-19T04:09:23.759Z,64.07
2022-12-19T04:11:58.698Z,64.12
2022-12-19T04:14:31.027Z,64.13
2022-12-19T04:17:10.897Z,63.51
2022-12-19T04:19:45.255Z,63.39
2022-12-19T04:22:21.057Z,63.85
2022-12-19T04:24:51.255Z,63.73
2022-12-19T04:27:20.588Z,63.50
2022-12-19T04:29:51.628Z,63.48
2022-12-19T04:32:20.621Z,63.30
2022-12-19T04:34:48.226Z,63.12
2022-12-19T04:37:15.937Z,63.09
2022-12-19T04:39:44.333Z,62.98
2022-12-19T04:42:11.903Z,62.46
2022-12-19T04:44:39.460Z,62.54
2022-12-19T04:47:07.344Z,62.77
2022-12-19T04:49:34.971Z,62.29
2022-12-19T04:52:02.489Z,62.33
2022-12-19T04:54:30.283Z,62.57
2022-12-19T04:56:57.979Z,62.95
2022-12-19T04:59:26.637Z,63.82
2022-12-19T05:01:55.069Z,63.58
2022-12-19T05:04:22.777Z,63.62
2022-12-19T05:06:50.321Z,63.75
2022-12-19T05:09:18.384Z,64.48
2022-12-19T05:11:45.995Z,64.53
2022-12-19T05:14:13.616Z,64.47
2022-12-19T05:16:42.014Z,64.59
2022-12-19T05:19:09.597Z,64.44
2022-12-19T05:21:37.186Z,65.20
2022-12-19T05:24:05.451Z,64.47
2022-12-19T05:26:33.003Z,64.40
2022-12-19T05:29:00.648Z,64.22
2022-12-19T05:31:28.623Z,64.00
2022-12-19T05:33:56.281Z,63.92
2022-12-19T05:36:29.073Z,64.11
2022-12-19T05:39:00.278Z,63.94
2022-12-19T05:41:27.895Z,63.94
2022-12-19T05:43:56.568Z,63.68
2022-12-19T05:46:25.524Z,63.30
2022-12-19T05:48:53.442Z,63.53
2022-12-19T05:51:21.397Z,64.26
2022-12-19T05:53:49.274Z,64.63
2022-12-19T05:56:19.583Z,65.43
2022-12-19T05:58:48.336Z,63.51
2022-12-19T06:01:22.310Z,62.78
2022-12-19T06:03:50.911Z,62.12
2022-12-19T06:06:24.348Z,61.75
2022-12-19T06:08:54.552Z,61.59
2022-12-19T06:11:22.506Z,61.54
2022-12-19T06:13:50.496Z,61.60
2022-12-19T06:16:20.362Z,61.88
2022-12-19T06:18:48.539Z,62.26
2022-12-19T06:21:20.989Z,62.53
2022-12-19T06:23:49.514Z,61.90
2022-12-19T06:26:20.089Z,62.22
2022-12-19T06:28:49.571Z,62.89
2022-12-19T06:31:20.863Z,62.77
2022-12-19T06:33:48.869Z,62.79
2022-12-19T06:36:22.654Z,63.66
2022-12-19T06:38:51.610Z,62.74
2022-12-19T06:41:38.755Z,62.96
2022-12-19T06:44:08.599Z,62.85
2022-12-19T06:46:37.808Z,63.60
2022-12-19T06:49:05.767Z,65.80
2022-12-19T06:51:34.046Z,64.21
2022-12-19T06:54:01.907Z,65.29
2022-12-19T06:56:35.265Z,64.62
2022-12-19T06:59:03.577Z,62.86
2022-12-19T07:02:08.589Z,61.92
2022-12-19T07:04:42.174Z,62.17
2022-12-19T07:07:09.901Z,61.87
2022-12-19T07:09:37.931Z,61.61
2022-12-19T07:12:08.516Z,61.26
2022-12-19T07:14:36.745Z,61.52
2022-12-19T07:17:05.006Z,60.95
2022-12-19T07:19:34.096Z,60.98
2022-12-19T07:22:04.168Z,60.80
2022-12-19T07:24:34.253Z,65.68
2022-12-19T07:27:02.254Z,60.88
2022-12-19T07:29:29.840Z,61.06
2022-12-19T07:31:57.807Z,60.63
2022-12-19T07:34:25.454Z,60.41
2022-12-19T07:36:53.070Z,60.30
2022-12-19T07:39:21.992Z,59.61
2022-12-19T07:41:50.075Z,59.30
2022-12-19T07:44:27.231Z,58.84
2022-12-19T07:46:55.189Z,59.39
2022-12-19T07:49:23.086Z,58.79
2022-12-19T07:51:50.753Z,58.77
2022-12-19T07:54:18.707Z,58.79
2022-12-19T07:56:46.438Z,59.43
2022-12-19T07:59:14.153Z,59.85
2022-12-19T08:01:42.189Z,59.27
2022-12-19T08:04:10.529Z,59.46
2022-12-19T08:06:41.413Z,59.60
2022-12-19T08:09:09.247Z,59.77
2022-12-19T08:11:37.117Z,59.07
2022-12-19T08:14:04.618Z,58.52
2022-12-19T08:16:43.912Z,58.37
2022-12-19T08:19:23.481Z,58.54
2022-12-19T08:21:54.782Z,58.27
2022-12-19T08:24:22.681Z,58.03
2022-12-19T08:26:50.256Z,58.82
2022-12-19T08:29:17.853Z,58.61
2022-12-19T08:31:45.788Z,58.97
2022-12-19T08:34:13.346Z,59.21
2022-12-19T08:36:40.989Z,60.37
2022-12-19T08:39:08.995Z,60.39
2022-12-19T08:41:38.485Z,60.83
2022-12-19T08:44:07.833Z,60.83
2022-12-19T08:46:35.759Z,60.48
2022-12-19T08:49:03.509Z,60.56
2022-12-19T08:51:31.171Z,60.15
2022-12-19T08:53:59.772Z,59.70
2022-12-19T08:56:27.308Z,58.88
2022-12-19T08:58:56.142Z,57.57
2022-12-19T09:01:25.915Z,57.38
2022-12-19T09:04:29.877Z,56.27
2022-12-19T09:06:41.453Z,56.20
2022-12-19T09:09:09.358Z,56.42
2022-12-19T09:11:46.669Z,54.95
2022-12-19T09:14:21.043Z,54.16
2022-12-19T09:16:49.228Z,53.09
2022-12-19T09:19:17.275Z,52.61
2022-12-19T09:21:45.156Z,53.72
2022-12-19T09:24:12.733Z,52.98
2022-12-19T09:26:42.176Z,53.07
2022-12-19T09:29:19.848Z,52.48
2022-12-19T09:31:56.207Z,50.63
2022-12-19T09:34:38.663Z,49.93
2022-12-19T09:37:09.292Z,49.71
2022-12-19T09:39:43.421Z,48.84
2022-12-19T09:42:23.550Z,48.85
2022-12-19T09:45:21.478Z,49.50
2022-12-19T09:48:01.965Z,48.42
2022-12-19T09:50:35.471Z,48.36
2022-12-19T09:53:10.840Z,47.98
2022-12-19T09:55:41.497Z,48.01
2022-12-19T09:58:35.557Z,49.35
2022-12-19T10:01:13.355Z,50.40
2022-12-19T10:03:51.458Z,51.00
2022-12-19T10:07:12.405Z,50.20
2022-12-19T10:10:51.565Z,49.75
2022-12-19T10:12:42.675Z,48.94
2022-12-19T10:15:58.763Z,48.77
2022-12-19T10:18:50.991Z,51.26
2022-12-19T10:22:08.121Z,52.09
2022-12-19T10:25:08.592Z,50.58
2022-12-19T10:28:06.202Z,48.23
2022-12-19T10:30:41.314Z,47.93
2022-12-19T10:33:39.971Z,46.89
2022-12-19T10:36:11.253Z,49.86
2022-12-19T10:39:24.997Z,50.26
2022-12-19T10:41:57.800Z,50.09
2022-12-19T10:44:30.607Z,48.94
2022-12-19T10:46:58.317Z,49.73
2022-12-19T10:49:27.540Z,51.70
2022-12-19T10:52:07.940Z,52.33
2022-12-19T10:54:38.608Z,54.86
2022-12-19T10:57:26.807Z,53.80
2022-12-19T11:00:18.974Z,52.75
2022-12-19T11:02:47.778Z,54.81
2022-12-19T11:05:57.742Z,55.17
2022-12-19T11:08:33.435Z,54.75
2022-12-19T11:12:52.905Z,56.08
2022-12-19T11:19:54.237Z,56.92
2022-12-19T11:21:49.164Z,57.42
2022-12-19T11:28:47.449Z,56.59
2022-12-19T11:29:31.090Z,59.55
2022-12-19T11:30:45.502Z,57.80
2022-12-19T11:30:48.001Z,58.22
2022-12-19T11:34:25.175Z,59.35
2022-12-19T11:37:21.474Z,59.54
2022-12-19T11:40:03.300Z,60.02
2022-12-19T11:43:04.414Z,59.92
2022-12-19T11:45:59.115Z,59.03
2022-12-19T11:48:44.450Z,61.16
2022-12-19T11:51:18.426Z,60.53
2022-12-19T11:54:02.402Z,59.43
2022-12-19T11:56:30.320Z,60.28
2022-12-19T11:59:02.551Z,59.86
2022-12-19T12:01:47.716Z,60.64
2022-12-19T12:04:46.531Z,60.33
2022-12-19T12:07:39.037Z,61.80
2022-12-19T12:15:00.072Z,62.92
2022-12-19T12:21:06.620Z,61.92
2022-12-19T12:27:01.855Z,61.09
2022-12-19T12:31:06.542Z,62.91
2022-12-19T12:31:06.910Z,62.52
2022-12-19T12:31:21.234Z,62.45
2022-12-19T12:31:40.917Z,62.54
2022-12-19T12:35:34.978Z,62.82
2022-12-19T12:38:48.027Z,62.95
2022-12-19T12:41:42.788Z,63.15
2022-12-19T12:44:12.168Z,63.21
2022-12-19T12:46:46.276Z,63.22
2022-12-19T12:49:37.128Z,63.05
2022-12-19T12:52:11.259Z,63.23
2022-12-19T12:54:43.997Z,63.21
2022-12-19T12:57:19.830Z,63.62
2022-12-19T13:00:21.159Z,63.89
2022-12-19T13:03:05.210Z,64.02
2022-12-19T13:05:54.138Z,64.37
2022-12-19T13:08:38.602Z,64.48
2022-12-19T13:11:38.131Z,63.24
2022-12-19T13:14:26.886Z,63.14
2022-12-19T13:16:54.849Z,64.65
2022-12-19T13:19:31.552Z,64.09
2022-12-19T13:22:05.138Z,63.74
2022-12-19T13:24:54.088Z,63.45
2022-12-19T13:27:21.586Z,63.62
2022-12-19T13:30:16.077Z,62.95
2022-12-19T13:32:43.580Z,63.60
2022-12-19T13:35:50.727Z,63.09
2022-12-19T13:39:56.899Z,62.73
2022-12-19T13:40:57.819Z,63.73
2022-12-19T13:43:46.406Z,62.42
2022-12-19T13:46:42.886Z,62.34
2022-12-19T13:49:25.141Z,64.43
2022-12-19T13:51:58.860Z,62.79
2022-12-19T13:54:32.445Z,63.24
2022-12-19T13:57:09.297Z,63.07
2022-12-19T13:59:40.385Z,62.98
2022-12-19T14:02:31.587Z,63.05
2022-12-19T14:05:00.879Z,63.48
2022-12-19T14:07:39.430Z,63.91
2022-12-19T14:11:37.121Z,63.79
2022-12-19T14:13:48.931Z,63.86
2022-12-19T14:16:18.569Z,65.32
2022-12-19T14:18:50.103Z,65.73
2022-12-19T14:22:08.589Z,64.70
2022-12-19T14:24:10.393Z,65.02
2022-12-19T14:28:19.382Z,65.62
2022-12-19T14:29:45.487Z,64.90
2022-12-19T14:33:44.839Z,64.07
2022-12-19T14:36:06.350Z,63.82
2022-12-19T14:39:24.522Z,64.40
2022-12-19T14:41:09.146Z,64.93
2022-12-19T14:43:59.774Z,64.33
2022-12-19T14:54:00.630Z,63.20
2022-12-19T14:54:01.245Z,62.77
2022-12-19T14:54:24.402Z,62.68
2022-12-19T14:56:17.603Z,63.10
2022-12-19T14:58:55.745Z,64.45
2022-12-19T15:01:32.627Z,64.53
2022-12-19T15:04:51.140Z,63.94
2022-12-19T15:07:07.232Z,64.03
2022-12-19T15:11:04.267Z,64.79
2022-12-19T15:14:48.068Z,64.79
2022-12-19T15:16:25.142Z,64.33
2022-12-19T15:18:57.101Z,64.28
2022-12-19T15:21:24.938Z,64.17
2022-12-19T15:23:52.802Z,65.82
2022-12-19T15:26:33.272Z,64.76
2022-12-19T15:29:03.502Z,65.18
2022-12-19T15:31:39.157Z,65.13
2022-12-19T15:34:36.279Z,64.90
2022-12-19T15:37:05.843Z,65.19
2022-12-19T15:39:34.354Z,66.57
2022-12-19T15:42:02.544Z,65.59
2022-12-19T15:44:39.536Z,64.75
2022-12-19T15:47:33.109Z,65.78
2022-12-19T15:50:03.965Z,65.48
2022-12-19T15:52:32.107Z,64.66
2022-12-19T15:54:59.726Z,66.87
2022-12-19T15:57:32.501Z,66.85
2022-12-19T16:00:04.263Z,66.67
2022-12-19T16:03:04.582Z,65.56
2022-12-19T16:05:22.826Z,66.05
2022-12-19T16:07:50.807Z,65.56
2022-12-19T16:10:18.751Z,66.26
2022-12-19T16:12:51.181Z,66.08
2022-12-19T16:15:18.727Z,65.89
2022-12-19T16:17:46.933Z,64.53
2022-12-19T16:20:17.392Z,64.13
2022-12-19T16:22:44.907Z,64.37
2022-12-19T16:25:13.653Z,64.85
2022-12-19T16:27:42.261Z,64.86
2022-12-19T16:30:22.035Z,64.98
2022-12-19T16:32:50.753Z,65.08
2022-12-19T16:35:40.164Z,65.85
2022-12-19T16:38:09.871Z,66.24
2022-12-19T16:40:37.571Z,66.44
2022-12-19T16:43:12.605Z,66.88
2022-12-19T16:45:40.559Z,67.66
2022-12-19T16:48:19.240Z,68.13
2022-12-19T16:50:48.237Z,68.04
2022-12-19T16:53:16.020Z,68.11
2022-12-19T16:55:44.906Z,67.87
2022-12-19T16:58:20.216Z,68.20
2022-12-19T17:00:48.302Z,68.46
2022-12-19T17:03:22.339Z,68.27
2022-12-19T17:05:49.965Z,69.08
2022-12-19T17:08:18.820Z,68.90
2022-12-19T17:10:47.593Z,69.00
2022-12-19T17:13:17.643Z,68.51
2022-12-19T17:15:49.680Z,68.36
2022-12-19T17:18:27.057Z,68.55
2022-12-19T17:20:55.351Z,68.65
2022-12-19T17:23:25.328Z,68.56
2022-12-19T17:25:54.771Z,68.82
2022-12-19T17:28:23.233Z,68.90
2022-12-19T17:30:54.330Z,68.93
2022-12-19T17:33:33.284Z,69.05
2022-12-19T17:36:01.847Z,69.41
2022-12-19T17:38:29.997Z,69.50
2022-12-19T17:40:57.797Z,69.68
2022-12-19T17:43:25.670Z,69.96
2022-12-19T17:45:53.808Z,69.88
2022-12-19T17:48:30.589Z,70.23
2022-12-19T17:50:58.678Z,69.89
2022-12-19T17:53:26.525Z,70.21
2022-12-19T17:55:54.121Z,69.74
2022-12-19T17:58:22.075Z,69.76
2022-12-19T18:00:51.356Z,69.60
2022-12-19T18:03:24.909Z,69.34
2022-12-19T18:05:54.791Z,69.41
2022-12-19T18:08:31.373Z,69.14
2022-12-19T18:11:01.495Z,68.91
2022-12-19T18:13:30.778Z,70.33
2022-12-19T18:16:03.121Z,68.78
2022-12-19T18:18:35.443Z,68.02
2022-12-19T18:21:04.336Z,67.54
2022-12-19T18:23:32.730Z,67.46
2022-12-19T18:26:02.496Z,67.35
2022-12-19T18:28:30.756Z,67.36
2022-12-19T18:31:03.191Z,67.29
2022-12-19T18:33:38.013Z,66.97
2022-12-19T18:36:07.638Z,66.83
2022-12-19T18:38:35.229Z,66.40
2022-12-19T18:41:03.020Z,66.59
2022-12-19T18:43:32.191Z,66.42
2022-12-19T18:45:59.754Z,66.10
2022-12-19T18:48:33.005Z,66.22
2022-12-19T18:51:01.458Z,67.67
2022-12-19T18:53:35.382Z,67.06
2022-12-19T18:56:06.214Z,65.91
2022-12-19T18:58:34.638Z,66.13
2022-12-19T19:01:05.179Z,66.12
2022-12-19T19:03:39.574Z,65.94
2022-12-19T19:06:18.660Z,65.32
2022-12-19T19:08:47.332Z,66.11
2022-12-19T19:11:16.365Z,66.41
2022-12-19T19:13:44.623Z,65.68
2022-12-19T19:16:22.601Z,66.48
2022-12-19T19:18:54.361Z,65.01
2022-12-19T19:21:25.625Z,64.63
2022-12-19T19:23:59.017Z,65.10
2022-12-19T19:26:26.913Z,64.73
2022-12-19T19:28:54.744Z,65.24
2022-12-19T19:31:27.936Z,65.61
2022-12-19T19:34:00.810Z,65.74
2022-12-19T19:36:31.077Z,65.50
2022-12-19T19:38:59.402Z,65.97
2022-12-19T19:41:29.956Z,65.88
2022-12-19T19:43:59.746Z,66.16
2022-12-19T19:46:28.111Z,66.60
2022-12-19T19:48:56.889Z,66.43
2022-12-19T19:51:24.908Z,66.73
2022-12-19T19:53:53.957Z,67.44
2022-12-19T19:56:21.558Z,66.17
2022-12-19T19:58:49.291Z,65.82
2022-12-19T20:01:17.560Z,66.36
2022-12-19T20:03:46.353Z,66.64
2022-12-19T20:06:14.561Z,65.70
2022-12-19T20:08:42.541Z,65.20
2022-12-19T20:11:11.144Z,68.28
2022-12-19T20:13:39.380Z,66.57
2022-12-19T20:16:11.153Z,67.12
2022-12-19T20:18:48.849Z,65.88
2022-12-19T20:21:18.313Z,66.56
2022-12-19T20:23:46.533Z,67.54
2022-12-19T20:26:16.472Z,65.64
2022-12-19T20:28:49.437Z,65.04
2022-12-19T20:31:19.917Z,64.88
2022-12-19T20:33:48.633Z,64.60
2022-12-19T20:36:17.253Z,64.93
2022-12-19T20:38:47.011Z,66.73
2022-12-19T20:41:16.224Z,65.27
2022-12-19T20:43:44.899Z,65.48
2022-12-19T20:46:15.869Z,65.92
2022-12-19T20:48:43.883Z,65.31
2022-12-19T20:51:13.176Z,65.76
2022-12-19T20:53:44.331Z,64.54
2022-12-19T20:56:18.102Z,64.97
2022-12-19T20:58:46.581Z,65.09
2022-12-19T21:01:20.159Z,65.23
2022-12-19T21:03:49.059Z,65.52
2022-12-19T21:06:19.715Z,65.18
2022-12-19T21:08:47.991Z,65.21
2022-12-19T21:11:15.942Z,64.68
2022-12-19T21:13:44.027Z,66.58
2022-12-19T21:16:14.900Z,65.38
2022-12-19T21:18:44.394Z,64.39
2022-12-19T21:21:18.448Z,64.03
2022-12-19T21:23:47.168Z,64.51
2022-12-19T21:26:15.059Z,65.60
2022-12-19T21:28:43.353Z,64.79
2022-12-19T21:31:26.544Z,64.67
2022-12-19T21:33:56.156Z,65.04
2022-12-19T21:36:25.681Z,66.99
2022-12-19T21:38:55.664Z,65.81
2022-12-19T21:41:23.874Z,66.33
2022-12-19T21:43:53.923Z,66.08
2022-12-19T21:46:24.972Z,66.22
2022-12-19T21:48:55.219Z,66.02
2022-12-19T21:51:26.031Z,66.53
2022-12-19T21:53:55.974Z,66.13
2022-12-19T21:56:24.886Z,66.63
2022-12-19T21:58:54.878Z,66.77
2022-12-19T22:01:24.084Z,67.26
2022-12-19T22:03:52.784Z,67.14
2022-12-19T22:06:27.818Z,67.24
2022-12-19T22:08:56.714Z,67.34
2022-12-19T22:11:25.272Z,67.31
2022-12-19T22:13:53.499Z,67.21
2022-12-19T22:16:21.614Z,67.18
2022-12-19T22:18:52.780Z,67.28
2022-12-19T22:21:20.819Z,67.35
2022-12-19T22:23:48.748Z,67.63
2022-12-19T22:26:23.146Z,67.69
2022-12-19T22:28:55.620Z,69.29
2022-12-19T22:31:28.974Z,67.54
2022-12-19T22:33:59.223Z,66.27
2022-12-19T22:36:29.306Z,66.95
2022-12-19T22:38:59.201Z,67.26
2022-12-19T22:41:27.543Z,66.30
2022-12-19T22:43:55.639Z,67.46
2022-12-19T22:46:32.806Z,66.86
2022-12-19T22:49:03.359Z,66.83
2022-12-19T22:51:33.802Z,66.08
2022-12-19T22:54:01.484Z,66.13
2022-12-19T22:56:30.967Z,65.73
2022-12-19T22:59:03.341Z,65.40
2022-12-19T23:01:34.462Z,64.95
2022-12-19T23:04:04.521Z,65.73
2022-12-19T23:06:34.263Z,65.14
2022-12-19T23:09:03.759Z,66.50
2022-12-19T23:11:35.350Z,65.78
2022-12-19T23:14:06.264Z,64.99
2022-12-19T23:16:34.439Z,65.49
2022-12-19T23:19:02.183Z,65.64
2022-12-19T23:21:30.065Z,65.15
2022-12-19T23:23:57.685Z,64.09
2022-12-19T23:26:31.825Z,65.25
2022-12-19T23:29:03.057Z,65.11
2022-12-19T23:31:31.190Z,65.24
2022-12-19T23:33:59.848Z,65.78
2022-12-19T23:37:08.405Z,66.31
2022-12-19T23:39:16.735Z,66.46
2022-12-19T23:41:44.513Z,66.39
2022-12-19T23:44:12.374Z,66.61
2022-12-19T23:46:40.378Z,68.04
2022-12-19T23:49:08.050Z,68.88
2022-12-19T23:51:35.575Z,68.70
2022-12-19T23:54:03.617Z,69.00
2022-12-19T23:56:32.535Z,69.58
2022-12-19T23:59:00.940Z,68.05
